createdAt,value
2019-04-04T00:01:38.623Z,96451.67
2019-04-04T00:04:06.412Z,96448.96
2019-04-04T00:06:35.480Z,96451.64
2019-04-04T00:09:02.689Z,96454.51
2019-04-04T00:11:32.571Z,96452.09
2019-04-04T00:14:01.112Z,96450.88
2019-04-04T00:16:30.281Z,96447.38
2019-04-04T00:18:59.064Z,96442.21
2019-04-04T00:21:26.280Z,96435.95
2019-04-04T00:23:56.688Z,96433.44
2019-04-04T00:26:23.759Z,96441.77
2019-04-04T00:28:53.185Z,96440.98
2019-04-04T00:31:19.797Z,96434.99
2019-04-04T00:33:48.917Z,96438.86
2019-04-04T00:36:18.258Z,96427.98
2019-04-04T00:38:44.854Z,96428.92
2019-04-04T00:41:15.210Z,96429.09
2019-04-04T00:43:43.392Z,96426.32
2019-04-04T00:46:10.315Z,96423.94
2019-04-04T00:48:38.974Z,96423.48
2019-04-04T00:51:08.625Z,96421.03
2019-04-04T00:53:36.503Z,96419.09
2019-04-04T00:56:05.346Z,96415.52
2019-04-04T00:58:31.940Z,96414.48
2019-04-04T01:01:01.230Z,96410.57
2019-04-04T01:03:30.811Z,96408.71
2019-04-04T01:05:58.177Z,96411.83
2019-04-04T01:08:28.215Z,96409.14
2019-04-04T01:10:58.644Z,96406.66
2019-04-04T01:13:27.548Z,96401.82
2019-04-04T01:15:54.747Z,96400.22
2019-04-04T01:18:25.436Z,96400.11
2019-04-04T01:20:55.728Z,96394.25
2019-04-04T01:23:22.371Z,96398.22
2019-04-04T01:25:53.969Z,96390.16
2019-04-04T01:28:23.296Z,96394.27
2019-04-04T01:30:51.326Z,96388.00
2019-04-04T01:33:19.696Z,96389.21
2019-04-04T01:35:53.788Z,96382.13
2019-04-04T01:38:23.737Z,96380.23
2019-04-04T01:40:54.886Z,96386.28
2019-04-04T01:43:24.276Z,96387.70
2019-04-04T01:45:53.291Z,96390.01
2019-04-04T01:48:21.491Z,96385.50
2019-04-04T01:50:53.401Z,96382.88
2019-04-04T01:53:21.856Z,96389.44
2019-04-04T01:55:53.988Z,96387.28
2019-04-04T01:58:22.847Z,96383.70
2019-04-04T02:00:52.710Z,96377.76
2019-04-04T02:03:22.410Z,96379.23
2019-04-04T02:05:49.640Z,96376.74
2019-04-04T02:08:17.747Z,96376.88
2019-04-04T02:10:44.332Z,96370.55
2019-04-04T02:13:11.286Z,96367.03
2019-04-04T02:15:37.866Z,96369.39
2019-04-04T02:18:07.254Z,96361.19
2019-04-04T02:20:35.054Z,96359.97
2019-04-04T02:23:05.446Z,96355.97
2019-04-04T02:25:35.682Z,96352.86
2019-04-04T02:28:04.324Z,96353.56
2019-04-04T02:30:30.931Z,96349.86
2019-04-04T02:33:00.473Z,96344.50
2019-04-04T02:35:28.323Z,96348.95
2019-04-04T02:37:56.201Z,96344.64
2019-04-04T02:40:25.641Z,96342.11
2019-04-04T02:42:55.230Z,96338.27
2019-04-04T02:45:21.173Z,96341.59
2019-04-04T02:47:51.211Z,96333.38
2019-04-04T02:50:16.355Z,96333.79
2019-04-04T02:52:46.008Z,96326.75
2019-04-04T02:55:14.352Z,96335.47
2019-04-04T02:57:42.396Z,96338.27
2019-04-04T03:00:11.979Z,96334.30
2019-04-04T03:02:38.589Z,96328.47
2019-04-04T03:05:06.214Z,96315.22
2019-04-04T03:07:33.067Z,96320.89
2019-04-04T03:10:03.688Z,96316.18
2019-04-04T03:12:34.009Z,96315.89
2019-04-04T03:15:03.844Z,96318.89
2019-04-04T03:17:32.667Z,96305.75
2019-04-04T03:20:00.432Z,96307.03
2019-04-04T03:22:39.443Z,96303.25
2019-04-04T03:25:14.919Z,96312.49
2019-04-04T03:27:41.692Z,96309.52
2019-04-04T03:30:13.238Z,96310.40
2019-04-04T03:32:39.266Z,96314.05
2019-04-04T03:35:07.215Z,96302.12
2019-04-04T03:37:34.060Z,96301.27
2019-04-04T03:40:03.233Z,96308.55
2019-04-04T03:42:31.911Z,96313.89
2019-04-04T03:44:58.628Z,96300.30
2019-04-04T03:47:25.565Z,96304.44
2019-04-04T03:49:56.931Z,96306.83
2019-04-04T03:52:24.519Z,96299.25
2019-04-04T03:54:56.328Z,96310.89
2019-04-04T03:57:25.365Z,96308.80
2019-04-04T03:59:51.897Z,96305.97
2019-04-04T04:02:22.269Z,96306.17
2019-04-04T04:04:48.881Z,96308.14
2019-04-04T04:07:19.831Z,96304.48
2019-04-04T04:09:49.778Z,96307.73
2019-04-04T04:12:16.368Z,96299.23
2019-04-04T04:14:43.952Z,96294.09
2019-04-04T04:20:03.308Z,96315.77
2019-04-04T04:22:28.636Z,96309.41
2019-04-04T04:24:56.613Z,96308.92
2019-04-04T04:27:24.248Z,96306.28
2019-04-04T04:29:51.730Z,96307.41
2019-04-04T04:32:22.745Z,96308.31
2019-04-04T04:34:51.879Z,96299.34
2019-04-04T04:37:22.136Z,96305.41
2019-04-04T04:39:49.746Z,96300.43
2019-04-04T04:42:21.125Z,96303.98
2019-04-04T04:44:47.099Z,96308.05
2019-04-04T04:47:14.687Z,96300.61
2019-04-04T04:49:42.515Z,96311.72
2019-04-04T04:52:09.774Z,96321.79
2019-04-04T04:54:42.565Z,96313.09
2019-04-04T04:59:59.367Z,96302.80
2019-04-04T05:02:27.216Z,96304.75
2019-04-04T05:04:54.003Z,96301.83
2019-04-04T05:07:21.189Z,96312.48
2019-04-04T05:09:48.884Z,96303.16
2019-04-04T07:18:36.802Z,96258.44
2019-04-04T07:21:03.771Z,96256.57
2019-04-04T07:23:30.718Z,96253.63
2019-04-04T07:25:57.448Z,96254.09
2019-04-04T07:28:24.082Z,96244.05
2019-04-04T07:30:50.940Z,96251.30
2019-04-04T07:33:17.701Z,96241.89
2019-04-04T07:35:44.292Z,96245.23
2019-04-04T07:38:10.903Z,96244.77
2019-04-04T07:40:38.363Z,96238.92
2019-04-04T07:43:04.928Z,96237.08
2019-04-04T07:45:31.525Z,96241.02
2019-04-04T07:47:59.376Z,96235.78
2019-04-04T07:50:27.066Z,96232.75
2019-04-04T07:52:54.159Z,96236.43
2019-04-04T07:55:21.004Z,96234.92
2019-04-04T07:57:50.917Z,96235.77
2019-04-04T08:00:16.247Z,96234.89
2019-04-04T08:02:42.886Z,96235.56
2019-04-04T08:05:12.901Z,96236.51
2019-04-04T08:07:38.567Z,96243.73
2019-04-04T08:10:05.454Z,96235.51
2019-04-04T08:12:32.075Z,96235.81
2019-04-04T08:14:58.864Z,96234.77
2019-04-04T08:17:25.626Z,96220.59
2019-04-04T08:19:59.561Z,96224.28
2019-04-04T08:22:20.896Z,96222.50
2019-04-04T08:24:47.616Z,96220.67
2019-04-04T08:27:14.253Z,96219.39
2019-04-04T08:29:41.155Z,96216.25
2019-04-04T08:32:07.780Z,96218.10
2019-04-04T08:34:36.541Z,96215.50
2019-04-04T08:37:03.188Z,96220.02
2019-04-04T08:39:29.933Z,96222.10
2019-04-04T08:41:56.562Z,96218.07
2019-04-04T08:44:23.156Z,96207.47
2019-04-04T08:46:49.862Z,96208.45
2019-04-04T08:49:16.671Z,96204.65
2019-04-04T08:51:43.839Z,96192.96
2019-04-04T08:54:10.456Z,96189.53
2019-04-04T08:56:37.378Z,96195.27
2019-04-04T08:59:03.966Z,96188.95
2019-04-04T09:01:30.631Z,96182.20
2019-04-04T09:03:57.384Z,96177.82
2019-04-04T09:06:24.322Z,96186.03
2019-04-04T09:08:51.268Z,96178.64
2019-04-04T09:11:17.912Z,96184.70
2019-04-04T09:13:44.739Z,96181.47
2019-04-04T09:16:11.369Z,96179.35
2019-04-04T09:18:39.201Z,96182.21
2019-04-04T09:21:05.953Z,96187.66
2019-04-04T09:23:32.791Z,96164.66
2019-04-04T09:26:05.942Z,96172.69
2019-04-04T09:28:28.952Z,96173.72
2019-04-04T09:30:55.926Z,96168.08
2019-04-04T09:33:35.133Z,96171.83
2019-04-04T09:36:01.863Z,96173.45
2019-04-04T09:38:29.959Z,96176.63
2019-04-04T09:40:56.821Z,96177.31
2019-04-04T09:43:23.449Z,96159.66
2019-04-04T09:45:50.077Z,96165.88
2019-04-04T09:48:17.191Z,96167.59
2019-04-04T09:50:44.100Z,96167.30
2019-04-04T09:53:10.710Z,96163.88
2019-04-04T09:55:37.357Z,96162.00
2019-04-04T09:58:03.970Z,96162.68
2019-04-04T10:00:35.564Z,96157.23
2019-04-04T10:03:02.730Z,96164.31
2019-04-04T10:05:29.657Z,96157.16
2019-04-04T10:07:56.580Z,96160.70
2019-04-04T10:10:23.370Z,96149.69
2019-04-04T10:12:49.970Z,96140.84
2019-04-04T10:15:17.564Z,96152.41
2019-04-04T10:17:44.744Z,96140.38
2019-04-04T10:20:11.335Z,96149.28
2019-04-04T10:22:38.418Z,96141.53
2019-04-04T10:25:05.004Z,96148.40
2019-04-04T10:27:31.900Z,96145.33
2019-04-04T10:29:58.807Z,96136.84
2019-04-04T10:32:25.612Z,96146.13
2019-04-04T10:34:52.275Z,96146.18
2019-04-04T10:37:19.035Z,96150.66
2019-04-04T10:39:47.706Z,96140.01
2019-04-04T10:42:14.297Z,96145.05
2019-04-04T10:44:45.121Z,96141.58
2019-04-04T10:47:12.608Z,96128.67
2019-04-04T10:49:39.437Z,96125.60
2019-04-04T10:52:06.357Z,96125.34
2019-04-04T10:54:33.577Z,96132.23
2019-04-04T10:57:00.450Z,96120.52
2019-04-04T10:59:28.336Z,96122.13
2019-04-04T11:01:55.141Z,96114.20
2019-04-04T11:04:22.102Z,96113.66
2019-04-04T11:06:49.268Z,96117.58
2019-04-04T11:09:16.169Z,96128.87
2019-04-04T11:11:45.381Z,96118.28
2019-04-04T11:14:12.294Z,96117.89
2019-04-04T11:16:39.452Z,96115.79
2019-04-04T11:19:06.221Z,96115.19
2019-04-04T11:21:33.109Z,96119.42
2019-04-04T11:24:00.526Z,96126.61
2019-04-04T11:26:27.512Z,96116.10
2019-04-04T11:28:57.113Z,96121.64
2019-04-04T11:31:26.245Z,96117.77
2019-04-04T11:33:54.228Z,96112.63
2019-04-04T11:36:21.341Z,96115.14
2019-04-04T11:38:51.494Z,96116.16
2019-04-04T11:41:20.489Z,96114.70
2019-04-04T11:43:55.489Z,96108.03
2019-04-04T11:46:23.802Z,96110.70
2019-04-04T11:48:53.258Z,96111.34
2019-04-04T11:51:23.174Z,96109.49
2019-04-04T11:53:54.222Z,96109.80
2019-04-04T11:56:22.832Z,96110.07
2019-04-04T11:58:51.918Z,96102.58
2019-04-04T12:01:22.075Z,96109.69
2019-04-04T12:03:51.315Z,96110.06
2019-04-04T12:06:18.583Z,96110.04
2019-04-04T12:08:45.532Z,96100.80
2019-04-04T12:11:12.130Z,96101.70
2019-04-04T12:13:39.252Z,96098.41
2019-04-04T12:16:08.970Z,96105.19
2019-04-04T12:18:39.482Z,96109.81
2019-04-04T12:21:09.127Z,96109.28
2019-04-04T12:23:35.868Z,96110.35
2019-04-04T12:26:04.950Z,96118.77
2019-04-04T12:28:35.630Z,96118.01
2019-04-04T12:31:03.775Z,96121.30
2019-04-04T12:33:32.901Z,96125.70
2019-04-04T12:36:03.099Z,96122.22
2019-04-04T12:38:29.967Z,96120.98
2019-04-04T12:40:59.093Z,96119.77
2019-04-04T12:43:28.710Z,96116.19
2019-04-04T12:45:58.067Z,96118.55
2019-04-04T12:48:25.130Z,96109.97
2019-04-04T12:50:56.035Z,96114.77
2019-04-04T12:53:22.728Z,96111.11
2019-04-04T12:55:54.198Z,96102.50
2019-04-04T12:58:21.172Z,96094.73
2019-04-04T13:00:47.937Z,96090.05
2019-04-04T13:03:16.579Z,96087.12
2019-04-04T13:05:47.657Z,96085.77
2019-04-04T13:08:16.494Z,96092.67
2019-04-04T13:10:44.158Z,96084.91
2019-04-04T13:13:13.121Z,96075.25
2019-04-04T13:15:39.779Z,96076.58
2019-04-04T13:18:07.626Z,96071.66
2019-04-04T13:20:34.650Z,96070.85
2019-04-04T13:23:01.594Z,96067.47
2019-04-04T13:25:28.285Z,96067.49
2019-04-04T13:28:04.405Z,96066.16
2019-04-04T13:30:31.774Z,96066.87
2019-04-04T13:33:03.548Z,96063.50
2019-04-04T13:35:33.675Z,96062.07
2019-04-04T13:38:04.593Z,96054.55
2019-04-04T13:40:44.517Z,96051.24
2019-04-04T13:43:08.301Z,96057.40
2019-04-04T13:45:36.568Z,96044.03
2019-04-04T13:48:04.452Z,96049.86
2019-04-04T13:50:33.776Z,96045.31
2019-04-04T13:53:00.611Z,96045.16
2019-04-04T13:55:31.879Z,96037.17
2019-04-04T13:57:58.835Z,96033.16
2019-04-04T14:00:25.678Z,96033.53
2019-04-04T14:02:52.808Z,96034.78
2019-04-04T14:05:19.721Z,96023.37
2019-04-04T14:07:46.569Z,96028.42
2019-04-04T14:10:16.910Z,96035.19
2019-04-04T14:12:42.485Z,96028.44
2019-04-04T14:15:09.362Z,96034.75
2019-04-04T14:17:36.336Z,96032.63
2019-04-04T14:20:03.021Z,96029.63
2019-04-04T14:22:30.172Z,96015.66
2019-04-04T14:24:56.843Z,96012.38
2019-04-04T14:27:26.985Z,96014.69
2019-04-04T14:29:55.193Z,96009.70
2019-04-04T14:32:21.339Z,96010.30
2019-04-04T14:34:48.013Z,96012.20
2019-04-04T14:37:14.857Z,96015.65
2019-04-04T14:39:42.024Z,96008.45
2019-04-04T14:42:08.997Z,96002.55
2019-04-04T14:44:36.226Z,96001.26
2019-04-04T14:47:03.052Z,96002.14
2019-04-04T14:49:29.929Z,96009.30
2019-04-04T14:51:56.794Z,96019.26
2019-04-04T14:54:23.522Z,96004.20
2019-04-04T14:56:50.856Z,96005.17
2019-04-04T14:59:17.778Z,96000.20
2019-04-04T15:01:44.630Z,96002.48
2019-04-04T15:04:11.702Z,95996.20
2019-04-04T15:06:38.577Z,95997.94
2019-04-04T15:09:05.465Z,95996.53
2019-04-04T15:11:32.351Z,95993.31
2019-04-04T15:13:59.204Z,95991.39
2019-04-04T15:16:25.860Z,95989.19
2019-04-04T15:18:52.490Z,95984.61
2019-04-04T15:21:19.438Z,95982.52
2019-04-04T15:23:46.142Z,95977.95
2019-04-04T15:26:12.891Z,95975.20
2019-04-04T15:28:39.759Z,95963.59
2019-04-04T15:31:06.587Z,95968.22
2019-04-04T15:33:33.242Z,95967.95
2019-04-04T15:35:59.823Z,95960.77
2019-04-04T15:38:26.688Z,95961.30
2019-04-04T15:40:53.347Z,95960.17
2019-04-04T15:43:20.006Z,95964.38
2019-04-04T15:45:46.656Z,95961.56
2019-04-04T15:48:13.655Z,95961.41
2019-04-04T15:50:40.284Z,95959.36
2019-04-04T15:53:08.486Z,95961.23
2019-04-04T15:55:35.129Z,95969.98
2019-04-04T15:58:01.709Z,95964.64
2019-04-04T16:00:32.738Z,95969.58
2019-04-04T16:03:01.976Z,95968.16
2019-04-04T16:05:33.182Z,95976.30
2019-04-04T16:08:05.883Z,95970.70
2019-04-04T16:10:32.673Z,95970.17
2019-04-04T16:13:02.434Z,95972.03
2019-04-04T16:15:31.659Z,95972.15
2019-04-04T16:18:01.182Z,95964.69
2019-04-04T16:20:30.721Z,95966.30
2019-04-04T16:23:00.651Z,95966.63
2019-04-04T16:25:29.387Z,95959.23
2019-04-04T16:27:58.016Z,95954.63
2019-04-04T16:30:27.221Z,95953.20
2019-04-04T16:32:54.580Z,95959.48
2019-04-04T16:35:23.451Z,95949.84
2019-04-04T16:37:52.141Z,95948.98
2019-04-04T16:40:18.749Z,95950.88
2019-04-04T16:42:45.335Z,95955.11
2019-04-04T16:45:12.220Z,95959.25
2019-04-04T16:47:40.904Z,95965.77
2019-04-04T16:50:10.853Z,95971.05
2019-04-04T16:55:32.348Z,95968.61
2019-04-04T16:58:00.252Z,95971.96
2019-04-04T17:00:28.350Z,95960.59
2019-04-04T17:02:56.589Z,95959.41
2019-04-04T17:05:23.441Z,95963.14
2019-04-04T17:07:50.046Z,95959.34
2019-04-04T17:10:17.865Z,95964.55
2019-04-04T17:12:44.578Z,95962.75
2019-04-04T17:15:15.253Z,95969.27
2019-04-04T17:17:43.590Z,95976.01
2019-04-04T17:20:12.912Z,95970.03
2019-04-04T17:22:43.457Z,95971.06
2019-04-04T17:25:11.145Z,95968.20
2019-04-04T17:27:37.756Z,95967.83
2019-04-04T17:30:05.031Z,95968.59
2019-04-04T17:32:33.126Z,95964.38
2019-04-04T17:35:02.847Z,95967.65
2019-04-04T17:37:32.019Z,95971.79
2019-04-04T17:39:58.727Z,95976.38
2019-04-04T17:42:32.095Z,95978.63
2019-04-04T17:45:02.626Z,95984.53
2019-04-04T17:47:29.637Z,95985.42
2019-04-04T17:49:56.326Z,95980.69
2019-04-04T17:52:22.924Z,95990.45
2019-04-04T17:54:50.022Z,95989.84
2019-04-04T17:57:16.909Z,95991.95
2019-04-04T17:59:43.498Z,95995.67
2019-04-04T18:02:12.534Z,95996.16
2019-04-04T18:04:48.343Z,95998.49
2019-04-04T18:07:08.138Z,96007.90
2019-04-04T18:09:34.793Z,96012.50
2019-04-04T18:14:33.039Z,96021.27
2019-04-04T18:16:59.902Z,96026.39
2019-04-04T18:19:26.779Z,96022.83
2019-04-04T18:21:53.370Z,96023.06
2019-04-04T18:24:20.228Z,96028.81
2019-04-04T18:26:47.221Z,96026.49
2019-04-04T18:29:14.172Z,96030.48
2019-04-04T18:31:41.150Z,96038.98
2019-04-04T18:34:08.837Z,96045.66
2019-04-04T18:36:35.973Z,96053.17
2019-04-04T18:39:02.720Z,96051.77
2019-04-04T18:41:29.580Z,96055.56
2019-04-04T18:43:56.367Z,96051.55
2019-04-04T18:46:23.089Z,96053.87
2019-04-04T18:48:49.875Z,96052.59
2019-04-04T18:51:16.459Z,96052.69
2019-04-04T18:53:43.406Z,96047.70
2019-04-04T18:56:10.114Z,96052.02
2019-04-04T18:58:36.703Z,96052.84
2019-04-04T19:01:03.383Z,96057.94
2019-04-04T19:03:30.043Z,96049.41
2019-04-04T19:05:56.625Z,96053.06
2019-04-04T19:08:23.802Z,96050.58
2019-04-04T19:10:50.660Z,96052.14
2019-04-04T19:13:21.974Z,96055.34
2019-04-04T19:15:49.279Z,96055.84
2019-04-04T19:18:15.920Z,96053.77
2019-04-04T19:20:42.609Z,96062.23
2019-04-04T19:23:09.217Z,96063.06
2019-04-04T19:25:35.827Z,96058.03
2019-04-04T19:28:02.449Z,96058.63
2019-04-04T19:30:29.332Z,96060.69
2019-04-04T19:32:56.051Z,96056.73
2019-04-04T19:35:22.984Z,96060.85
2019-04-04T19:38:00.066Z,96056.64
2019-04-04T19:40:18.968Z,96058.52
2019-04-04T19:42:49.727Z,96059.56
2019-04-04T19:45:16.930Z,96061.20
2019-04-04T19:47:43.600Z,96072.73
2019-04-04T19:50:10.378Z,96069.77
2019-04-04T19:52:37.076Z,96069.76
2019-04-04T19:55:03.670Z,96073.52
2019-04-04T19:57:30.515Z,96068.25
2019-04-04T19:59:57.260Z,96072.02
2019-04-04T20:02:24.133Z,96076.02
2019-04-04T20:07:34.794Z,96072.05
2019-04-04T20:10:01.394Z,96073.39
2019-04-04T20:12:28.024Z,96079.25
2019-04-04T20:14:54.745Z,96082.70
2019-04-04T20:17:21.347Z,96074.47
2019-04-04T20:19:47.932Z,96080.30
2019-04-04T20:22:14.789Z,96082.98
2019-04-04T20:24:41.684Z,96088.81
2019-04-04T20:27:08.338Z,96093.07
2019-04-04T20:29:35.182Z,96097.05
2019-04-04T20:32:01.763Z,96101.82
2019-04-04T20:34:28.671Z,96095.95
2019-04-04T20:36:55.608Z,96092.71
2019-04-04T20:39:22.189Z,96085.70
2019-04-04T20:41:48.807Z,96095.00
2019-04-04T20:44:15.385Z,96092.59
2019-04-04T20:46:42.171Z,96086.73
2019-04-04T20:49:09.230Z,96088.05
2019-04-04T20:51:36.141Z,96090.63
2019-04-04T20:54:02.806Z,96095.92
2019-04-04T20:56:29.737Z,96100.63
2019-04-04T20:58:56.371Z,96098.18
2019-04-04T21:01:23.049Z,96100.00
2019-04-04T21:03:49.647Z,96099.40
2019-04-04T21:06:16.253Z,96096.41
2019-04-04T21:08:43.041Z,96095.09
2019-04-04T21:11:09.809Z,96096.93
2019-04-04T21:13:36.690Z,96095.83
2019-04-04T21:16:03.407Z,96104.83
2019-04-04T21:18:29.992Z,96107.74
2019-04-04T21:20:56.681Z,96104.17
2019-04-04T21:23:24.575Z,96101.20
2019-04-04T21:25:51.185Z,96103.84
2019-04-04T21:28:17.802Z,96107.03
2019-04-04T21:30:44.665Z,96103.98
2019-04-04T21:33:12.327Z,96107.17
2019-04-04T21:35:39.386Z,96100.86
2019-04-04T21:38:09.650Z,96102.73
2019-04-04T21:40:40.865Z,96106.80
2019-04-04T21:43:09.625Z,96112.18
2019-04-04T21:45:39.272Z,96112.30
2019-04-04T21:48:07.491Z,96112.13
2019-04-04T21:50:38.164Z,96107.48
2019-04-04T21:53:06.237Z,96111.33
2019-04-04T21:55:32.826Z,96120.61
2019-04-04T21:57:59.565Z,96117.31
2019-04-04T22:00:28.978Z,96107.37
2019-04-04T22:02:59.177Z,96112.57
2019-04-04T22:05:28.050Z,96108.59
2019-04-04T22:07:57.984Z,96108.45
2019-04-04T22:10:28.727Z,96110.60
2019-04-04T22:13:02.885Z,96111.19
2019-04-04T22:15:26.874Z,96110.80
2019-04-04T22:17:55.956Z,96109.70
2019-04-04T22:20:25.033Z,96106.95
2019-04-04T22:25:53.184Z,96101.95
2019-04-04T22:28:23.508Z,96096.88
2019-04-04T22:30:51.425Z,96097.64
2019-04-04T22:33:20.095Z,96105.13
2019-04-04T22:35:50.756Z,96101.50
2019-04-04T22:38:17.894Z,96103.61
2019-04-04T22:40:45.384Z,96103.88
2019-04-04T22:43:14.574Z,96103.67
2019-04-04T22:45:44.000Z,96109.08
2019-04-04T22:48:12.347Z,96111.48
2019-04-04T22:50:40.541Z,96106.78
2019-04-04T22:53:08.402Z,96106.43
2019-04-04T22:55:37.092Z,96101.30
2019-04-04T22:58:05.821Z,96101.00
2019-04-04T23:00:33.953Z,96098.44
2019-04-04T23:03:00.578Z,96103.69
2019-04-04T23:05:27.348Z,96103.73
2019-04-04T23:07:56.480Z,96101.67
2019-04-04T23:10:25.513Z,96104.31
2019-04-04T23:12:54.688Z,96102.42
2019-04-04T23:15:21.267Z,96099.20
2019-04-04T23:17:50.101Z,96094.09
2019-04-04T23:20:17.023Z,96092.05
2019-04-04T23:22:53.026Z,96097.34
2019-04-04T23:25:12.040Z,96091.09
2019-04-04T23:27:38.642Z,96092.63
2019-04-04T23:30:05.776Z,96088.58
2019-04-04T23:32:32.673Z,96081.67
2019-04-04T23:34:59.262Z,96088.74
2019-04-04T23:37:25.910Z,96092.13
2019-04-04T23:39:52.533Z,96084.78
2019-04-04T23:42:19.140Z,96085.10
2019-04-04T23:44:59.944Z,96086.08
2019-04-04T23:47:15.860Z,96084.16
2019-04-04T23:49:42.500Z,96086.94
2019-04-04T23:52:09.386Z,96091.41
2019-04-04T23:54:36.143Z,96081.47
2019-04-04T23:57:02.764Z,96081.89
2019-04-04T23:59:29.390Z,96080.25
